CFP3 weather

CLOSED Calgary (Foothills Hospital) Heliport
Calgary, Alberta, Canada

Public forecast

Using degrees Celsius for public forecast. Weather courtesy of forecast.io.

Closest aviation weather report (METAR) to Calgary (Foothills Hospital) Heliport

Closest report is Calgary International Airport, 5.2 nm (9.6 km) NE. Retrieved 2019/12/13 10:38 UTC (0 seconds ago):

CYYC 131038Z 04007KT 4SM BR BKN010 OVC016 M12/M15 A2989 RMK SC6SC2 SLP198

Closest aviation forecast (TAF) to Calgary (Foothills Hospital) Heliport

Closest forecast is Calgary International Airport, 5.2 nm (9.6 km) NE. Retrieved 2019/12/13 09:39 UTC (31 minutes ago):

TAF CYYC 130838Z 1309/1406 04006KT 6SM BR SCT008 OVC015 TEMPO 1309/1311 3SM BR OVC008 FM131100 06006KT 5SM BR SCT004 OVC008 TEMPO 1311/1318 11/2SM BR OVC004 BECMG 1313/1315 12006KT FM131800 13006KT 5SM -SN BR OVC008 TEMPO 1318/1321 P6SM NSW SCT008 OVC012 FM132100 17006KT P6SM OVC012 TEMPO 1322/1402 4SM -SHSN OVC010 FM140200 18005KT 5SM BR SCT004 OVC008 TEMPO 1403/1406 2SM BR OVC004 RMK NXT FCST BY 131200Z